sensor_id;sensor_type;location;lat;lon;timestamp;temperature;humidity
65146;DHT22;51730;56.950;24.126;2023-04-25T00:01:24;14.00;94.30
65146;DHT22;51730;56.950;24.126;2023-04-25T00:03:51;14.00;95.40
65146;DHT22;51730;56.950;24.126;2023-04-25T00:06:19;14.00;94.70
65146;DHT22;51730;56.950;24.126;2023-04-25T00:08:47;13.90;94.70
65146;DHT22;51730;56.950;24.126;2023-04-25T00:11:14;13.90;96.90
65146;DHT22;51730;56.950;24.126;2023-04-25T00:13:41;13.90;99.20
65146;DHT22;51730;56.950;24.126;2023-04-25T00:16:09;13.90;93.30
65146;DHT22;51730;56.950;24.126;2023-04-25T00:18:38;13.90;94.40
65146;DHT22;51730;56.950;24.126;2023-04-25T00:21:05;13.90;93.20
65146;DHT22;51730;56.950;24.126;2023-04-25T00:23:32;13.80;93.80
65146;DHT22;51730;56.950;24.126;2023-04-25T00:26:02;13.80;93.00
65146;DHT22;51730;56.950;24.126;2023-04-25T00:28:31;13.80;92.80
65146;DHT22;51730;56.950;24.126;2023-04-25T00:30:58;13.80;93.40
65146;DHT22;51730;56.950;24.126;2023-04-25T00:33:25;13.70;93.80
65146;DHT22;51730;56.950;24.126;2023-04-25T00:35:52;13.70;92.60
65146;DHT22;51730;56.950;24.126;2023-04-25T00:38:20;13.70;93.00
65146;DHT22;51730;56.950;24.126;2023-04-25T00:40:47;13.70;95.70
65146;DHT22;51730;56.950;24.126;2023-04-25T00:43:16;13.70;92.20
65146;DHT22;51730;56.950;24.126;2023-04-25T00:45:43;13.70;92.80
65146;DHT22;51730;56.950;24.126;2023-04-25T00:48:10;13.70;92.00
65146;DHT22;51730;56.950;24.126;2023-04-25T00:50:37;13.70;91.90
65146;DHT22;51730;56.950;24.126;2023-04-25T00:53:05;13.70;91.50
65146;DHT22;51730;56.950;24.126;2023-04-25T00:55:33;13.60;92.60
65146;DHT22;51730;56.950;24.126;2023-04-25T00:58:01;13.60;91.80
65146;DHT22;51730;56.950;24.126;2023-04-25T01:00:30;13.60;90.20
65146;DHT22;51730;56.950;24.126;2023-04-25T01:02:57;13.60;91.30
65146;DHT22;51730;56.950;24.126;2023-04-25T01:05:26;13.60;90.20
65146;DHT22;51730;56.950;24.126;2023-04-25T01:07:53;13.60;90.00
65146;DHT22;51730;56.950;24.126;2023-04-25T01:10:20;13.60;88.40
65146;DHT22;51730;56.950;24.126;2023-04-25T01:12:47;13.60;86.90
65146;DHT22;51730;56.950;24.126;2023-04-25T01:15:16;13.60;86.30
65146;DHT22;51730;56.950;24.126;2023-04-25T01:17:49;13.60;85.90
65146;DHT22;51730;56.950;24.126;2023-04-25T01:20:16;13.60;94.20
65146;DHT22;51730;56.950;24.126;2023-04-25T01:22:46;13.50;86.60
65146;DHT22;51730;56.950;24.126;2023-04-25T01:25:13;13.50;84.00
65146;DHT22;51730;56.950;24.126;2023-04-25T01:27:40;13.50;85.20
65146;DHT22;51730;56.950;24.126;2023-04-25T01:30:08;13.50;86.30
65146;DHT22;51730;56.950;24.126;2023-04-25T01:32:35;13.50;87.70
65146;DHT22;51730;56.950;24.126;2023-04-25T01:35:06;13.50;89.90
65146;DHT22;51730;56.950;24.126;2023-04-25T01:37:40;13.50;85.50
65146;DHT22;51730;56.950;24.126;2023-04-25T01:40:08;13.50;83.10
65146;DHT22;51730;56.950;24.126;2023-04-25T01:42:36;13.50;81.50
65146;DHT22;51730;56.950;24.126;2023-04-25T01:45:03;13.50;84.70
65146;DHT22;51730;56.950;24.126;2023-04-25T01:47:32;13.60;81.60
65146;DHT22;51730;56.950;24.126;2023-04-25T01:50:06;13.60;80.30
65146;DHT22;51730;56.950;24.126;2023-04-25T01:52:36;13.60;79.00
65146;DHT22;51730;56.950;24.126;2023-04-25T01:55:04;13.60;78.60
65146;DHT22;51730;56.950;24.126;2023-04-25T01:57:31;13.60;77.00
65146;DHT22;51730;56.950;24.126;2023-04-25T01:59:58;13.60;76.30
65146;DHT22;51730;56.950;24.126;2023-04-25T02:02:27;13.60;76.90
65146;DHT22;51730;56.950;24.126;2023-04-25T02:04:54;13.60;76.50
65146;DHT22;51730;56.950;24.126;2023-04-25T02:07:21;13.60;75.60
65146;DHT22;51730;56.950;24.126;2023-04-25T02:09:48;13.50;75.70
65146;DHT22;51730;56.950;24.126;2023-04-25T02:12:16;13.50;77.70
65146;DHT22;51730;56.950;24.126;2023-04-25T02:14:43;13.40;77.70
65146;DHT22;51730;56.950;24.126;2023-04-25T02:17:10;13.40;76.60
65146;DHT22;51730;56.950;24.126;2023-04-25T02:19:39;13.40;78.20
65146;DHT22;51730;56.950;24.126;2023-04-25T02:22:09;13.40;76.30
65146;DHT22;51730;56.950;24.126;2023-04-25T02:24:50;13.40;75.10
65146;DHT22;51730;56.950;24.126;2023-04-25T02:27:21;13.30;75.20
65146;DHT22;51730;56.950;24.126;2023-04-25T02:29:48;13.30;75.60
65146;DHT22;51730;56.950;24.126;2023-04-25T02:32:15;13.30;75.80
65146;DHT22;51730;56.950;24.126;2023-04-25T02:34:42;13.20;74.90
65146;DHT22;51730;56.950;24.126;2023-04-25T02:37:10;13.20;75.30
65146;DHT22;51730;56.950;24.126;2023-04-25T02:39:39;13.10;74.50
65146;DHT22;51730;56.950;24.126;2023-04-25T02:42:07;13.10;74.70
65146;DHT22;51730;56.950;24.126;2023-04-25T02:44:35;13.10;75.30
65146;DHT22;51730;56.950;24.126;2023-04-25T02:47:05;13.00;79.80
65146;DHT22;51730;56.950;24.126;2023-04-25T02:49:32;13.10;76.80
65146;DHT22;51730;56.950;24.126;2023-04-25T02:52:02;13.10;75.30
65146;DHT22;51730;56.950;24.126;2023-04-25T02:54:30;13.00;75.40
65146;DHT22;51730;56.950;24.126;2023-04-25T02:57:00;13.00;75.70
65146;DHT22;51730;56.950;24.126;2023-04-25T02:59:36;13.00;75.30
65146;DHT22;51730;56.950;24.126;2023-04-25T03:02:06;12.90;75.20
65146;DHT22;51730;56.950;24.126;2023-04-25T03:04:44;12.90;75.40
65146;DHT22;51730;56.950;24.126;2023-04-25T03:07:21;12.90;76.50
65146;DHT22;51730;56.950;24.126;2023-04-25T03:09:49;12.90;77.70
65146;DHT22;51730;56.950;24.126;2023-04-25T03:12:17;12.90;74.90
65146;DHT22;51730;56.950;24.126;2023-04-25T03:14:44;12.90;76.00
65146;DHT22;51730;56.950;24.126;2023-04-25T03:17:12;12.90;76.50
65146;DHT22;51730;56.950;24.126;2023-04-25T03:19:39;12.90;75.50
65146;DHT22;51730;56.950;24.126;2023-04-25T03:22:06;12.90;77.90
65146;DHT22;51730;56.950;24.126;2023-04-25T03:24:35;12.90;76.10
65146;DHT22;51730;56.950;24.126;2023-04-25T03:27:05;12.90;75.20
65146;DHT22;51730;56.950;24.126;2023-04-25T03:29:32;12.90;75.80
65146;DHT22;51730;56.950;24.126;2023-04-25T03:32:01;12.90;75.00
65146;DHT22;51730;56.950;24.126;2023-04-25T03:34:32;12.90;75.00
65146;DHT22;51730;56.950;24.126;2023-04-25T03:36:59;13.00;75.50
65146;DHT22;51730;56.950;24.126;2023-04-25T03:39:27;13.00;74.80
65146;DHT22;51730;56.950;24.126;2023-04-25T03:41:55;13.00;74.10
65146;DHT22;51730;56.950;24.126;2023-04-25T03:44:23;13.10;73.90
65146;DHT22;51730;56.950;24.126;2023-04-25T03:46:52;13.10;74.70
65146;DHT22;51730;56.950;24.126;2023-04-25T03:49:19;13.20;73.20
65146;DHT22;51730;56.950;24.126;2023-04-25T03:51:49;13.20;73.40
65146;DHT22;51730;56.950;24.126;2023-04-25T03:54:16;13.20;72.60
65146;DHT22;51730;56.950;24.126;2023-04-25T03:56:43;13.30;73.20
65146;DHT22;51730;56.950;24.126;2023-04-25T03:59:09;13.30;72.70
65146;DHT22;51730;56.950;24.126;2023-04-25T04:01:36;13.30;72.20
65146;DHT22;51730;56.950;24.126;2023-04-25T04:04:05;13.30;72.30
65146;DHT22;51730;56.950;24.126;2023-04-25T04:06:47;13.30;72.00
65146;DHT22;51730;56.950;24.126;2023-04-25T04:09:19;13.40;71.90
65146;DHT22;51730;56.950;24.126;2023-04-25T04:11:48;13.40;72.00
65146;DHT22;51730;56.950;24.126;2023-04-25T04:14:15;13.50;72.30
65146;DHT22;51730;56.950;24.126;2023-04-25T04:17:05;13.50;72.50
65146;DHT22;51730;56.950;24.126;2023-04-25T04:19:32;13.50;72.40
65146;DHT22;51730;56.950;24.126;2023-04-25T04:21:59;13.60;72.60
65146;DHT22;51730;56.950;24.126;2023-04-25T04:24:26;13.60;72.30
65146;DHT22;51730;56.950;24.126;2023-04-25T04:26:53;13.60;71.60
65146;DHT22;51730;56.950;24.126;2023-04-25T04:29:23;13.70;71.90
65146;DHT22;51730;56.950;24.126;2023-04-25T04:31:51;13.70;71.50
65146;DHT22;51730;56.950;24.126;2023-04-25T04:34:21;13.80;71.20
65146;DHT22;51730;56.950;24.126;2023-04-25T04:36:49;13.80;72.10
65146;DHT22;51730;56.950;24.126;2023-04-25T04:39:16;13.80;71.00
65146;DHT22;51730;56.950;24.126;2023-04-25T04:41:43;13.90;71.10
65146;DHT22;51730;56.950;24.126;2023-04-25T04:44:10;13.90;70.80
65146;DHT22;51730;56.950;24.126;2023-04-25T04:46:37;13.90;71.70
65146;DHT22;51730;56.950;24.126;2023-04-25T04:49:09;14.00;71.80
65146;DHT22;51730;56.950;24.126;2023-04-25T04:51:38;14.10;70.90
65146;DHT22;51730;56.950;24.126;2023-04-25T04:54:05;14.10;70.40
65146;DHT22;51730;56.950;24.126;2023-04-25T04:56:33;14.20;70.10
65146;DHT22;51730;56.950;24.126;2023-04-25T04:59:02;14.30;69.70
65146;DHT22;51730;56.950;24.126;2023-04-25T05:01:29;14.40;69.20
65146;DHT22;51730;56.950;24.126;2023-04-25T05:03:57;14.60;69.00
65146;DHT22;51730;56.950;24.126;2023-04-25T05:06:28;14.60;67.90
65146;DHT22;51730;56.950;24.126;2023-04-25T05:08:58;14.70;68.10
65146;DHT22;51730;56.950;24.126;2023-04-25T05:11:25;14.80;67.40
65146;DHT22;51730;56.950;24.126;2023-04-25T05:13:54;14.80;68.90
65146;DHT22;51730;56.950;24.126;2023-04-25T05:16:21;14.70;67.70
65146;DHT22;51730;56.950;24.126;2023-04-25T05:18:48;14.80;67.30
65146;DHT22;51730;56.950;24.126;2023-04-25T05:21:15;14.90;66.50
65146;DHT22;51730;56.950;24.126;2023-04-25T05:23:44;14.80;66.70
65146;DHT22;51730;56.950;24.126;2023-04-25T05:26:11;14.90;66.70
65146;DHT22;51730;56.950;24.126;2023-04-25T05:28:40;14.90;66.90
65146;DHT22;51730;56.950;24.126;2023-04-25T05:31:12;14.80;66.20
65146;DHT22;51730;56.950;24.126;2023-04-25T05:33:40;14.80;66.40
65146;DHT22;51730;56.950;24.126;2023-04-25T05:36:07;14.80;66.70
65146;DHT22;51730;56.950;24.126;2023-04-25T05:38:35;14.90;66.40
65146;DHT22;51730;56.950;24.126;2023-04-25T05:41:02;14.90;66.50
65146;DHT22;51730;56.950;24.126;2023-04-25T05:43:29;15.10;66.10
65146;DHT22;51730;56.950;24.126;2023-04-25T05:45:57;15.10;65.70
65146;DHT22;51730;56.950;24.126;2023-04-25T05:48:30;15.20;65.60
65146;DHT22;51730;56.950;24.126;2023-04-25T05:50:57;15.20;65.20
65146;DHT22;51730;56.950;24.126;2023-04-25T05:53:25;15.20;65.30
65146;DHT22;51730;56.950;24.126;2023-04-25T05:55:52;15.20;65.30
65146;DHT22;51730;56.950;24.126;2023-04-25T05:58:20;15.30;65.00
65146;DHT22;51730;56.950;24.126;2023-04-25T06:00:47;15.20;65.00
65146;DHT22;51730;56.950;24.126;2023-04-25T06:03:15;15.20;65.20
65146;DHT22;51730;56.950;24.126;2023-04-25T06:05:45;15.20;65.40
65146;DHT22;51730;56.950;24.126;2023-04-25T06:08:13;15.30;65.60
65146;DHT22;51730;56.950;24.126;2023-04-25T06:10:43;15.30;65.70
65146;DHT22;51730;56.950;24.126;2023-04-25T06:13:10;15.30;65.80
65146;DHT22;51730;56.950;24.126;2023-04-25T06:15:37;15.30;65.80
65146;DHT22;51730;56.950;24.126;2023-04-25T06:18:07;15.40;65.80
65146;DHT22;51730;56.950;24.126;2023-04-25T06:20:34;15.50;66.20
65146;DHT22;51730;56.950;24.126;2023-04-25T06:23:02;15.50;65.30
65146;DHT22;51730;56.950;24.126;2023-04-25T06:25:33;15.70;65.50
65146;DHT22;51730;56.950;24.126;2023-04-25T06:28:00;15.70;65.60
65146;DHT22;51730;56.950;24.126;2023-04-25T06:30:27;15.70;65.70
65146;DHT22;51730;56.950;24.126;2023-04-25T06:32:56;15.80;65.70
65146;DHT22;51730;56.950;24.126;2023-04-25T06:35:26;16.00;65.20
65146;DHT22;51730;56.950;24.126;2023-04-25T06:37:56;15.90;65.10
65146;DHT22;51730;56.950;24.126;2023-04-25T06:40:24;16.10;65.20
65146;DHT22;51730;56.950;24.126;2023-04-25T06:42:56;16.30;64.50
65146;DHT22;51730;56.950;24.126;2023-04-25T06:45:24;16.50;63.70
65146;DHT22;51730;56.950;24.126;2023-04-25T06:47:51;16.50;63.00
65146;DHT22;51730;56.950;24.126;2023-04-25T06:50:17;16.60;63.00
65146;DHT22;51730;56.950;24.126;2023-04-25T06:52:44;16.50;63.10
65146;DHT22;51730;56.950;24.126;2023-04-25T06:55:11;16.30;63.30
65146;DHT22;51730;56.950;24.126;2023-04-25T06:57:39;16.40;63.40
65146;DHT22;51730;56.950;24.126;2023-04-25T07:00:07;16.40;63.10
65146;DHT22;51730;56.950;24.126;2023-04-25T07:02:36;16.50;63.10
65146;DHT22;51730;56.950;24.126;2023-04-25T07:05:06;16.50;62.40
65146;DHT22;51730;56.950;24.126;2023-04-25T07:07:33;16.60;62.80
65146;DHT22;51730;56.950;24.126;2023-04-25T07:10:03;16.50;62.80
65146;DHT22;51730;56.950;24.126;2023-04-25T07:12:30;16.50;63.00
65146;DHT22;51730;56.950;24.126;2023-04-25T07:14:57;16.40;62.80
65146;DHT22;51730;56.950;24.126;2023-04-25T07:17:29;16.40;62.90
65146;DHT22;51730;56.950;24.126;2023-04-25T07:20:00;16.50;63.00
65146;DHT22;51730;56.950;24.126;2023-04-25T07:22:29;16.50;62.80
65146;DHT22;51730;56.950;24.126;2023-04-25T07:24:57;16.50;62.70
65146;DHT22;51730;56.950;24.126;2023-04-25T07:27:24;16.50;62.80
65146;DHT22;51730;56.950;24.126;2023-04-25T07:29:51;16.40;63.10
65146;DHT22;51730;56.950;24.126;2023-04-25T07:32:18;16.40;63.50
65146;DHT22;51730;56.950;24.126;2023-04-25T07:34:45;16.50;63.10
65146;DHT22;51730;56.950;24.126;2023-04-25T07:37:14;16.50;63.00
65146;DHT22;51730;56.950;24.126;2023-04-25T07:39:41;16.50;63.00
65146;DHT22;51730;56.950;24.126;2023-04-25T07:42:08;16.60;62.90
65146;DHT22;51730;56.950;24.126;2023-04-25T07:44:35;16.70;62.60
65146;DHT22;51730;56.950;24.126;2023-04-25T07:47:08;17.00;61.80
65146;DHT22;51730;56.950;24.126;2023-04-25T07:49:35;17.20;61.00
65146;DHT22;51730;56.950;24.126;2023-04-25T07:52:04;17.40;59.50
65146;DHT22;51730;56.950;24.126;2023-04-25T07:54:32;17.60;57.60
65146;DHT22;51730;56.950;24.126;2023-04-25T07:56:59;17.70;56.90
65146;DHT22;51730;56.950;24.126;2023-04-25T07:59:27;17.70;56.20
65146;DHT22;51730;56.950;24.126;2023-04-25T08:01:55;17.90;56.80
65146;DHT22;51730;56.950;24.126;2023-04-25T08:04:24;17.90;56.60
65146;DHT22;51730;56.950;24.126;2023-04-25T08:06:52;18.00;56.00
65146;DHT22;51730;56.950;24.126;2023-04-25T08:09:26;18.10;55.90
65146;DHT22;51730;56.950;24.126;2023-04-25T08:11:53;18.20;54.80
65146;DHT22;51730;56.950;24.126;2023-04-25T08:14:19;18.30;52.20
65146;DHT22;51730;56.950;24.126;2023-04-25T08:16:49;18.40;51.90
65146;DHT22;51730;56.950;24.126;2023-04-25T08:19:18;18.40;51.30
65146;DHT22;51730;56.950;24.126;2023-04-25T08:21:47;18.50;51.40
65146;DHT22;51730;56.950;24.126;2023-04-25T08:24:14;18.60;50.40
65146;DHT22;51730;56.950;24.126;2023-04-25T08:26:41;18.60;49.60
65146;DHT22;51730;56.950;24.126;2023-04-25T08:29:08;18.70;49.40
65146;DHT22;51730;56.950;24.126;2023-04-25T08:31:36;18.70;49.10
65146;DHT22;51730;56.950;24.126;2023-04-25T08:34:04;18.70;48.50
65146;DHT22;51730;56.950;24.126;2023-04-25T08:36:31;18.70;49.00
65146;DHT22;51730;56.950;24.126;2023-04-25T08:39:05;18.80;49.40
65146;DHT22;51730;56.950;24.126;2023-04-25T08:41:34;18.90;49.10
65146;DHT22;51730;56.950;24.126;2023-04-25T08:44:03;18.90;48.20
65146;DHT22;51730;56.950;24.126;2023-04-25T08:46:31;19.00;48.20
65146;DHT22;51730;56.950;24.126;2023-04-25T08:49:02;19.00;48.10
65146;DHT22;51730;56.950;24.126;2023-04-25T08:51:33;19.10;47.70
65146;DHT22;51730;56.950;24.126;2023-04-25T08:54:10;19.10;47.30
65146;DHT22;51730;56.950;24.126;2023-04-25T08:57:00;19.10;47.30
65146;DHT22;51730;56.950;24.126;2023-04-25T08:59:28;19.00;45.50
65146;DHT22;51730;56.950;24.126;2023-04-25T09:01:56;19.00;45.60
65146;DHT22;51730;56.950;24.126;2023-04-25T09:04:23;19.10;45.80
65146;DHT22;51730;56.950;24.126;2023-04-25T09:06:51;19.20;46.10
65146;DHT22;51730;56.950;24.126;2023-04-25T09:09:18;19.20;45.80
65146;DHT22;51730;56.950;24.126;2023-04-25T09:11:45;19.30;45.40
65146;DHT22;51730;56.950;24.126;2023-04-25T09:14:19;19.40;45.80
65146;DHT22;51730;56.950;24.126;2023-04-25T09:19:26;19.30;44.20
65146;DHT22;51730;56.950;24.126;2023-04-25T09:22:06;19.30;44.80
65146;DHT22;51730;56.950;24.126;2023-04-25T09:24:40;19.40;45.10
65146;DHT22;51730;56.950;24.126;2023-04-25T09:27:09;19.60;45.10
65146;DHT22;51730;56.950;24.126;2023-04-25T09:29:39;19.70;44.50
65146;DHT22;51730;56.950;24.126;2023-04-25T09:32:17;19.70;44.40
65146;DHT22;51730;56.950;24.126;2023-04-25T09:34:46;19.70;43.70
65146;DHT22;51730;56.950;24.126;2023-04-25T09:37:21;19.70;43.90
65146;DHT22;51730;56.950;24.126;2023-04-25T09:39:49;19.80;43.90
65146;DHT22;51730;56.950;24.126;2023-04-25T09:42:17;19.80;43.90
65146;DHT22;51730;56.950;24.126;2023-04-25T09:44:45;19.80;42.40
65146;DHT22;51730;56.950;24.126;2023-04-25T09:47:16;19.80;42.00
65146;DHT22;51730;56.950;24.126;2023-04-25T09:49:44;19.90;42.50
65146;DHT22;51730;56.950;24.126;2023-04-25T09:52:14;20.20;42.40
65146;DHT22;51730;56.950;24.126;2023-04-25T09:54:42;20.20;43.00
65146;DHT22;51730;56.950;24.126;2023-04-25T09:59:48;20.20;42.50
65146;DHT22;51730;56.950;24.126;2023-04-25T10:02:17;20.10;42.10
65146;DHT22;51730;56.950;24.126;2023-04-25T10:04:48;19.90;42.30
65146;DHT22;51730;56.950;24.126;2023-04-25T10:07:20;19.70;42.30
65146;DHT22;51730;56.950;24.126;2023-04-25T10:09:48;19.80;42.40
65146;DHT22;51730;56.950;24.126;2023-04-25T10:12:18;20.00;42.00
65146;DHT22;51730;56.950;24.126;2023-04-25T10:14:46;20.20;41.60
65146;DHT22;51730;56.950;24.126;2023-04-25T10:17:21;20.30;41.20
65146;DHT22;51730;56.950;24.126;2023-04-25T10:19:49;20.30;40.60
65146;DHT22;51730;56.950;24.126;2023-04-25T10:22:19;20.30;40.80
65146;DHT22;51730;56.950;24.126;2023-04-25T10:24:50;20.40;41.00
65146;DHT22;51730;56.950;24.126;2023-04-25T10:27:19;20.50;40.80
65146;DHT22;51730;56.950;24.126;2023-04-25T10:30:14;20.40;41.10
65146;DHT22;51730;56.950;24.126;2023-04-25T10:32:42;20.50;41.10
65146;DHT22;51730;56.950;24.126;2023-04-25T10:35:13;20.50;40.70
65146;DHT22;51730;56.950;24.126;2023-04-25T10:40:30;20.60;39.90
65146;DHT22;51730;56.950;24.126;2023-04-25T10:45:51;20.80;40.90
65146;DHT22;51730;56.950;24.126;2023-04-25T10:48:25;20.80;41.30
65146;DHT22;51730;56.950;24.126;2023-04-25T10:51:15;20.80;41.70
65146;DHT22;51730;56.950;24.126;2023-04-25T10:53:45;20.50;42.20
65146;DHT22;51730;56.950;24.126;2023-04-25T10:56:22;20.70;42.00
65146;DHT22;51730;56.950;24.126;2023-04-25T10:58:50;20.60;41.60
65146;DHT22;51730;56.950;24.126;2023-04-25T11:01:24;20.60;41.70
65146;DHT22;51730;56.950;24.126;2023-04-25T11:03:56;20.90;41.20
65146;DHT22;51730;56.950;24.126;2023-04-25T11:09:00;20.90;40.30
65146;DHT22;51730;56.950;24.126;2023-04-25T11:11:28;20.80;40.30
65146;DHT22;51730;56.950;24.126;2023-04-25T11:13:55;20.40;40.70
65146;DHT22;51730;56.950;24.126;2023-04-25T11:16:23;20.50;40.90
65146;DHT22;51730;56.950;24.126;2023-04-25T11:18:56;20.60;41.10
65146;DHT22;51730;56.950;24.126;2023-04-25T11:21:25;20.60;41.20
65146;DHT22;51730;56.950;24.126;2023-04-25T11:23:56;20.40;41.30
65146;DHT22;51730;56.950;24.126;2023-04-25T11:26:24;20.40;41.80
65146;DHT22;51730;56.950;24.126;2023-04-25T11:28:56;20.50;41.50
65146;DHT22;51730;56.950;24.126;2023-04-25T11:31:27;20.60;41.20
65146;DHT22;51730;56.950;24.126;2023-04-25T11:33:58;20.70;41.30
65146;DHT22;51730;56.950;24.126;2023-04-25T11:36:25;20.60;41.20
65146;DHT22;51730;56.950;24.126;2023-04-25T11:38:54;20.50;41.60
65146;DHT22;51730;56.950;24.126;2023-04-25T11:41:22;20.50;42.20
65146;DHT22;51730;56.950;24.126;2023-04-25T11:43:51;20.50;42.40
65146;DHT22;51730;56.950;24.126;2023-04-25T11:46:21;20.80;41.60
65146;DHT22;51730;56.950;24.126;2023-04-25T11:48:48;21.10;41.00
65146;DHT22;51730;56.950;24.126;2023-04-25T11:51:19;21.00;42.50
65146;DHT22;51730;56.950;24.126;2023-04-25T11:53:46;20.80;40.90
65146;DHT22;51730;56.950;24.126;2023-04-25T11:56:13;20.70;41.90
65146;DHT22;51730;56.950;24.126;2023-04-25T11:58:58;20.60;42.40
65146;DHT22;51730;56.950;24.126;2023-04-25T12:01:32;20.40;42.50
65146;DHT22;51730;56.950;24.126;2023-04-25T12:04:20;20.40;43.10
65146;DHT22;51730;56.950;24.126;2023-04-25T12:06:50;20.30;43.10
65146;DHT22;51730;56.950;24.126;2023-04-25T12:09:27;20.30;42.80
65146;DHT22;51730;56.950;24.126;2023-04-25T12:11:55;20.40;42.40
65146;DHT22;51730;56.950;24.126;2023-04-25T12:14:24;20.50;42.60
65146;DHT22;51730;56.950;24.126;2023-04-25T12:16:59;20.50;42.90
65146;DHT22;51730;56.950;24.126;2023-04-25T12:19:27;20.50;42.50
65146;DHT22;51730;56.950;24.126;2023-04-25T12:22:03;20.70;41.10
65146;DHT22;51730;56.950;24.126;2023-04-25T12:24:32;20.90;41.70
65146;DHT22;51730;56.950;24.126;2023-04-25T12:27:05;21.00;40.80
65146;DHT22;51730;56.950;24.126;2023-04-25T12:29:37;21.10;41.00
65146;DHT22;51730;56.950;24.126;2023-04-25T12:32:19;21.20;41.40
65146;DHT22;51730;56.950;24.126;2023-04-25T12:34:53;21.10;41.20
65146;DHT22;51730;56.950;24.126;2023-04-25T12:37:23;21.30;40.70
65146;DHT22;51730;56.950;24.126;2023-04-25T12:39:51;21.50;40.90
65146;DHT22;51730;56.950;24.126;2023-04-25T12:42:21;21.50;40.10
65146;DHT22;51730;56.950;24.126;2023-04-25T12:44:50;21.90;40.10
65146;DHT22;51730;56.950;24.126;2023-04-25T12:47:17;22.00;38.80
65146;DHT22;51730;56.950;24.126;2023-04-25T12:49:44;21.90;39.20
65146;DHT22;51730;56.950;24.126;2023-04-25T12:52:11;21.90;38.30
65146;DHT22;51730;56.950;24.126;2023-04-25T12:54:40;21.90;38.40
65146;DHT22;51730;56.950;24.126;2023-04-25T12:57:07;21.40;38.70
65146;DHT22;51730;56.950;24.126;2023-04-25T12:59:36;21.00;39.80
65146;DHT22;51730;56.950;24.126;2023-04-25T13:02:11;20.60;39.80
65146;DHT22;51730;56.950;24.126;2023-04-25T13:04:39;20.30;40.20
65146;DHT22;51730;56.950;24.126;2023-04-25T13:07:13;20.50;40.90
65146;DHT22;51730;56.950;24.126;2023-04-25T13:09:41;20.60;40.10
65146;DHT22;51730;56.950;24.126;2023-04-25T13:12:12;20.70;40.20
65146;DHT22;51730;56.950;24.126;2023-04-25T13:14:41;20.80;40.00
65146;DHT22;51730;56.950;24.126;2023-04-25T13:17:11;20.60;40.90
65146;DHT22;51730;56.950;24.126;2023-04-25T13:19:38;20.70;40.60
65146;DHT22;51730;56.950;24.126;2023-04-25T13:22:06;20.70;40.30
65146;DHT22;51730;56.950;24.126;2023-04-25T13:24:37;20.70;41.20
65146;DHT22;51730;56.950;24.126;2023-04-25T13:27:04;20.50;42.20
65146;DHT22;51730;56.950;24.126;2023-04-25T13:29:35;20.10;44.10
65146;DHT22;51730;56.950;24.126;2023-04-25T13:32:21;20.10;45.70
65146;DHT22;51730;56.950;24.126;2023-04-25T13:34:48;19.90;46.60
65146;DHT22;51730;56.950;24.126;2023-04-25T13:37:16;19.50;47.90
65146;DHT22;51730;56.950;24.126;2023-04-25T13:39:54;19.20;49.30
65146;DHT22;51730;56.950;24.126;2023-04-25T13:42:24;19.10;50.40
65146;DHT22;51730;56.950;24.126;2023-04-25T13:44:51;19.30;50.80
65146;DHT22;51730;56.950;24.126;2023-04-25T13:47:20;19.40;51.10
65146;DHT22;51730;56.950;24.126;2023-04-25T13:49:50;19.20;48.30
65146;DHT22;51730;56.950;24.126;2023-04-25T13:52:20;19.10;49.50
65146;DHT22;51730;56.950;24.126;2023-04-25T13:54:52;19.20;48.60
65146;DHT22;51730;56.950;24.126;2023-04-25T13:57:19;19.40;47.90
65146;DHT22;51730;56.950;24.126;2023-04-25T13:59:54;19.50;48.10
65146;DHT22;51730;56.950;24.126;2023-04-25T14:02:21;19.50;48.30
65146;DHT22;51730;56.950;24.126;2023-04-25T14:04:50;19.50;48.40
65146;DHT22;51730;56.950;24.126;2023-04-25T14:07:17;19.70;48.80
65146;DHT22;51730;56.950;24.126;2023-04-25T14:09:46;19.70;47.90
65146;DHT22;51730;56.950;24.126;2023-04-25T14:12:16;19.70;48.50
65146;DHT22;51730;56.950;24.126;2023-04-25T14:14:44;19.70;47.60
65146;DHT22;51730;56.950;24.126;2023-04-25T14:17:12;19.60;47.00
65146;DHT22;51730;56.950;24.126;2023-04-25T14:19:41;19.20;46.90
65146;DHT22;51730;56.950;24.126;2023-04-25T14:22:18;19.00;47.30
65146;DHT22;51730;56.950;24.126;2023-04-25T14:24:47;19.00;47.60
65146;DHT22;51730;56.950;24.126;2023-04-25T14:27:15;19.10;47.70
65146;DHT22;51730;56.950;24.126;2023-04-25T14:29:43;19.20;47.80
65146;DHT22;51730;56.950;24.126;2023-04-25T14:32:11;19.20;48.30
65146;DHT22;51730;56.950;24.126;2023-04-25T14:34:38;19.10;48.70
65146;DHT22;51730;56.950;24.126;2023-04-25T14:37:11;19.00;49.30
65146;DHT22;51730;56.950;24.126;2023-04-25T14:39:43;19.10;48.40
65146;DHT22;51730;56.950;24.126;2023-04-25T14:42:22;19.20;49.10
65146;DHT22;51730;56.950;24.126;2023-04-25T14:44:57;19.30;48.70
65146;DHT22;51730;56.950;24.126;2023-04-25T14:47:31;19.40;48.70
65146;DHT22;51730;56.950;24.126;2023-04-25T14:50:04;19.40;48.60
65146;DHT22;51730;56.950;24.126;2023-04-25T14:52:39;19.20;49.40
65146;DHT22;51730;56.950;24.126;2023-04-25T14:55:06;19.00;50.50
65146;DHT22;51730;56.950;24.126;2023-04-25T14:57:37;18.80;52.10
65146;DHT22;51730;56.950;24.126;2023-04-25T15:00:07;18.30;53.10
65146;DHT22;51730;56.950;24.126;2023-04-25T15:02:40;18.40;54.30
65146;DHT22;51730;56.950;24.126;2023-04-25T15:05:07;18.30;55.10
65146;DHT22;51730;56.950;24.126;2023-04-25T15:07:35;18.30;55.70
65146;DHT22;51730;56.950;24.126;2023-04-25T15:10:02;18.10;56.90
65146;DHT22;51730;56.950;24.126;2023-04-25T15:12:29;18.10;57.30
65146;DHT22;51730;56.950;24.126;2023-04-25T15:14:56;17.90;57.20
65146;DHT22;51730;56.950;24.126;2023-04-25T15:17:29;18.00;57.60
65146;DHT22;51730;56.950;24.126;2023-04-25T15:19:57;17.90;57.10
65146;DHT22;51730;56.950;24.126;2023-04-25T15:22:24;17.80;56.50
65146;DHT22;51730;56.950;24.126;2023-04-25T15:24:54;17.90;56.10
65146;DHT22;51730;56.950;24.126;2023-04-25T15:27:29;18.00;55.90
65146;DHT22;51730;56.950;24.126;2023-04-25T15:29:58;18.10;55.90
65146;DHT22;51730;56.950;24.126;2023-04-25T15:32:27;17.90;55.80
65146;DHT22;51730;56.950;24.126;2023-04-25T15:34:55;18.00;56.50
65146;DHT22;51730;56.950;24.126;2023-04-25T15:37:22;18.10;56.10
65146;DHT22;51730;56.950;24.126;2023-04-25T15:39:52;18.20;56.30
65146;DHT22;51730;56.950;24.126;2023-04-25T15:42:30;18.30;55.40